TimeAKDT,TemperatureF,Dew PointF,Humidity,Sea Level PressureIn,VisibilityMPH,Wind Direction,Wind SpeedMPH,Gust SpeedMPH,PrecipitationIn,Events,Conditions,WindDirDegrees,DateUTC
12:53 AM,-18.9,-24.0,78,29.92,10.0,Calm,Calm,-,N/A,,Clear,0,2013-03-25 08:53:00
1:53 AM,-22.0,-27.0,77,29.92,10.0,West,3.5,-,N/A,,Clear,260,2013-03-25 09:53:00
2:53 AM,-23.1,-27.9,78,29.91,10.0,Calm,Calm,-,N/A,,Scattered Clouds,0,2013-03-25 10:53:00
3:53 AM,-23.1,-29.0,74,29.91,10.0,Calm,Calm,-,N/A,,Scattered Clouds,0,2013-03-25 11:53:00
4:53 AM,-23.1,-27.9,78,29.89,10.0,Calm,Calm,-,N/A,,Scattered Clouds,0,2013-03-25 12:53:00
5:53 AM,-20.9,-27.0,73,29.88,7.0,Calm,Calm,-,N/A,,Scattered Clouds,0,2013-03-25 13:53:00
6:53 AM,-24.0,-29.0,77,29.88,10.0,Calm,Calm,-,N/A,,Scattered Clouds,0,2013-03-25 14:53:00
7:53 AM,-24.0,-29.9,74,29.86,9.0,Calm,Calm,-,0.00,,Scattered Clouds,0,2013-03-25 15:53:00
8:00 AM,-25.6,-32.8,69,29.82,10.0,Calm,Calm,-,N/A,,Scattered Clouds,0,2013-03-25 16:00:00
8:48 AM,-25.6,-32.8,69,29.82,7.0,Calm,Calm,-,N/A,,Overcast,0,2013-03-25 16:48:00
8:53 AM,-25.1,-31.0,74,29.86,6.0,Calm,Calm,-,N/A,,Haze,0,2013-03-25 16:53:00
9:00 AM,-25.6,-29.2,83,29.82,10.0,Calm,Calm,-,N/A,,Scattered Clouds,0,2013-03-25 17:00:00
9:53 AM,-18.9,-24.0,78,29.86,10.0,Calm,Calm,-,N/A,,Scattered Clouds,0,2013-03-25 17:53:00
10:53 AM,-7.1,-16.1,65,29.86,10.0,WNW,4.6,-,N/A,,Mostly Cloudy,300,2013-03-25 18:53:00
11:53 AM,-2.9,-14.1,59,29.86,10.0,WNW,6.9,-,N/A,,Mostly Cloudy,290,2013-03-25 19:53:00
12:53 PM,-0.0,-11.9,57,29.87,10.0,Variable,5.8,-,N/A,,Mostly Cloudy,0,2013-03-25 20:53:00
1:53 PM,1.9,-11.9,52,29.87,10.0,NW,6.9,-,N/A,,Mostly Cloudy,310,2013-03-25 21:53:00
2:53 PM,1.9,-11.9,52,29.88,10.0,North,6.9,-,N/A,,Mostly Cloudy,10,2013-03-25 22:53:00
3:53 PM,3.9,-9.0,55,29.89,5.0,Calm,Calm,-,0.00,Snow,Light Snow,0,2013-03-25 23:53:00
4:53 PM,5.0,-9.0,52,29.90,9.0,Variable,4.6,-,0.00,,Overcast,0,2013-03-26 00:53:00
5:53 PM,3.0,-11.0,52,29.91,10.0,WNW,11.5,-,0.00,,Overcast,300,2013-03-26 01:53:00
6:53 PM,1.0,-11.9,55,29.94,10.0,West,8.1,17.3,N/A,,Overcast,280,2013-03-26 02:53:00
7:53 PM,1.0,-13.0,52,29.95,10.0,West,10.4,-,N/A,,Overcast,280,2013-03-26 03:53:00
8:53 PM,-0.9,-15.0,52,29.97,10.0,West,5.8,-,N/A,,Overcast,280,2013-03-26 04:53:00
9:53 PM,-4.0,-15.0,59,29.98,10.0,West,5.8,-,N/A,,Mostly Cloudy,270,2013-03-26 05:53:00
10:53 PM,-4.0,-16.1,56,29.98,10.0,West,5.8,-,N/A,,Overcast,280,2013-03-26 06:53:00
11:53 PM,-6.0,-17.0,59,30.00,10.0,WSW,4.6,-,N/A,,Overcast,250,2013-03-26 07:53:00